Time,TemperatureF,DewpointF,PressureIn,WindDirection,WindDirectionDegrees,WindSpeedMPH,WindSpeedGustMPH,Humidity,HourlyPrecipIn,Conditions,Clouds,dailyrainin,SoftwareType,DateUTC
2013-11-02 00:12:00,42.4,39.0,29.92,NNW,333,10.0,22.0,86,0.00,,,0.00,weatherlink.com 1.10,2013-11-02 05:12:00,
2013-11-02 00:27:00,42.2,38.0,29.93,NW,326,15.0,18.0,86,0.00,,,0.00,weatherlink.com 1.10,2013-11-02 05:27:00,
2013-11-02 00:42:00,42.0,38.0,29.93,NW,322,11.0,19.0,86,0.00,,,0.00,weatherlink.com 1.10,2013-11-02 05:42:00,
2013-11-02 00:57:00,41.5,38.0,29.94,NNW,335,9.0,17.0,87,0.00,,,0.00,weatherlink.com 1.10,2013-11-02 05:57:00,
2013-11-02 01:13:00,41.7,38.0,29.94,NNW,333,9.0,18.0,86,0.00,,,0.00,weatherlink.com 1.10,2013-11-02 06:13:00,
2013-11-02 01:27:00,41.8,38.0,29.95,NNW,335,11.0,19.0,85,0.00,,,0.00,weatherlink.com 1.10,2013-11-02 06:27:00,
2013-11-02 01:42:00,41.7,38.0,29.95,NNW,346,8.0,15.0,85,0.00,,,0.00,weatherlink.com 1.10,2013-11-02 06:42:00,
2013-11-02 01:57:00,41.6,38.0,29.96,ENE,77,9.0,18.0,86,0.00,,,0.00,weatherlink.com 1.10,2013-11-02 06:57:00,
2013-11-02 02:12:00,41.6,38.0,29.97,NNW,340,13.0,19.0,86,0.00,,,0.00,weatherlink.com 1.10,2013-11-02 07:12:00,
2013-11-02 02:27:00,41.5,38.0,29.97,NW,322,12.0,22.0,86,0.00,,,0.00,weatherlink.com 1.10,2013-11-02 07:27:00,
2013-11-02 02:42:00,41.5,38.0,29.97,NE,40,12.0,20.0,86,0.00,,,0.00,weatherlink.com 1.10,2013-11-02 07:42:00,
2013-11-02 02:57:00,41.4,38.0,29.98,NNW,346,11.0,18.0,86,0.00,,,0.00,weatherlink.com 1.10,2013-11-02 07:57:00,
2013-11-02 03:12:00,41.2,37.0,29.98,NW,309,10.0,18.0,86,0.00,,,0.00,weatherlink.com 1.10,2013-11-02 08:12:00,
2013-11-02 03:27:00,41.1,37.0,29.98,NE,36,11.0,19.0,86,0.00,,,0.00,weatherlink.com 1.10,2013-11-02 08:27:00,
2013-11-02 03:42:00,41.0,37.0,29.98,NNW,331,10.0,15.0,86,0.00,,,0.00,weatherlink.com 1.10,2013-11-02 08:42:00,
2013-11-02 03:57:00,40.8,37.0,29.99,NNW,330,14.0,18.0,87,0.00,,,0.00,weatherlink.com 1.10,2013-11-02 08:57:00,
2013-11-02 04:12:00,40.7,37.0,29.99,NNE,27,10.0,19.0,86,0.00,,,0.00,weatherlink.com 1.10,2013-11-02 09:12:00,
2013-11-02 04:27:00,40.5,37.0,30.00,NW,304,9.0,14.0,87,0.00,,,0.00,weatherlink.com 1.10,2013-11-02 09:27:00,
2013-11-02 04:42:00,40.4,37.0,30.00,NNE,32,11.0,16.0,87,0.00,,,0.00,weatherlink.com 1.10,2013-11-02 09:42:00,
2013-11-02 04:57:00,40.1,37.0,30.01,NW,304,8.0,15.0,87,0.00,,,0.00,weatherlink.com 1.10,2013-11-02 09:57:00,
2013-11-02 05:12:00,39.3,36.0,30.02,NW,309,9.0,13.0,88,0.00,,,0.00,weatherlink.com 1.10,2013-11-02 10:12:00,
2013-11-02 05:27:00,39.0,36.0,30.02,WNW,293,6.0,12.0,88,0.00,,,0.00,weatherlink.com 1.10,2013-11-02 10:27:00,
2013-11-02 05:43:00,39.1,36.0,30.03,NW,313,9.0,13.0,87,0.00,,,0.00,weatherlink.com 1.10,2013-11-02 10:43:00,
2013-11-02 05:58:00,38.6,35.0,30.03,NNW,335,8.0,11.0,87,0.00,,,0.00,weatherlink.com 1.10,2013-11-02 10:58:00,
2013-11-02 06:13:00,37.9,34.0,30.04,NW,316,5.0,12.0,87,0.00,,,0.00,weatherlink.com 1.10,2013-11-02 11:13:00,
2013-11-02 06:28:00,36.9,34.0,30.05,WNW,293,6.0,9.0,88,0.00,,,0.00,weatherlink.com 1.10,2013-11-02 11:28:00,
2013-11-02 06:43:00,35.5,33.0,30.05,WNW,295,7.0,8.0,89,0.00,,,0.00,weatherlink.com 1.10,2013-11-02 11:43:00,
2013-11-02 06:58:00,34.3,32.0,30.05,NW,304,3.0,6.0,91,0.00,,,0.00,weatherlink.com 1.10,2013-11-02 11:58:00,
2013-11-02 07:13:00,33.5,32.0,30.06,WNW,297,5.0,5.0,92,0.00,,,0.00,weatherlink.com 1.10,2013-11-02 12:13:00,
2013-11-02 07:28:00,31.7,30.0,30.07,West,277,4.0,8.0,93,0.00,,,0.00,weatherlink.com 1.10,2013-11-02 12:28:00,
2013-11-02 07:43:00,31.2,30.0,30.07,West,262,2.0,6.0,94,0.00,,,0.00,weatherlink.com 1.10,2013-11-02 12:43:00,
2013-11-02 07:58:00,30.8,30.0,30.07,West,270,3.0,5.0,95,0.00,,,0.00,weatherlink.com 1.10,2013-11-02 12:58:00,
2013-11-02 08:13:00,31.0,30.0,30.08,West,280,5.0,6.0,95,0.00,,,0.00,weatherlink.com 1.10,2013-11-02 13:13:00,
2013-11-02 08:28:00,31.4,30.0,30.08,West,281,2.0,6.0,94,0.00,,,0.00,weatherlink.com 1.10,2013-11-02 13:28:00,
2013-11-02 08:43:00,32.1,31.0,30.08,West,278,7.0,9.0,95,0.00,,,0.00,weatherlink.com 1.10,2013-11-02 13:43:00,
2013-11-02 08:58:00,33.0,32.0,30.09,West,271,6.0,6.0,94,0.00,,,0.00,weatherlink.com 1.10,2013-11-02 13:58:00,
2013-11-02 09:13:00,34.3,33.0,30.09,West,278,7.0,10.0,93,0.00,,,0.00,weatherlink.com 1.10,2013-11-02 14:13:00,
2013-11-02 09:28:00,34.9,33.0,30.10,WNW,288,9.0,12.0,91,0.00,,,0.00,weatherlink.com 1.10,2013-11-02 14:28:00,
2013-11-02 09:43:00,36.2,34.0,30.10,WNW,302,8.0,9.0,90,0.00,,,0.00,weatherlink.com 1.10,2013-11-02 14:43:00,
2013-11-02 09:58:00,37.7,35.0,30.11,West,276,10.0,11.0,89,0.00,,,0.00,weatherlink.com 1.10,2013-11-02 14:58:00,
2013-11-02 10:13:00,38.3,35.0,30.11,West,277,8.0,11.0,87,0.00,,,0.00,weatherlink.com 1.10,2013-11-02 15:13:00,
2013-11-02 10:28:00,39.2,35.0,30.11,WNW,298,11.0,13.0,84,0.00,,,0.00,weatherlink.com 1.10,2013-11-02 15:28:00,
2013-11-02 10:43:00,40.0,35.0,30.11,WNW,302,8.0,14.0,83,0.00,,,0.00,weatherlink.com 1.10,2013-11-02 15:43:00,
2013-11-02 10:58:00,41.5,36.0,30.11,NW,310,7.0,14.0,81,0.00,,,0.00,weatherlink.com 1.10,2013-11-02 15:58:00,
2013-11-02 11:13:00,43.1,36.0,30.11,NW,326,11.0,17.0,77,0.00,,,0.00,weatherlink.com 1.10,2013-11-02 16:13:00,
2013-11-02 11:28:00,43.7,36.0,30.12,NNW,346,12.0,18.0,74,0.00,,,0.00,weatherlink.com 1.10,2013-11-02 16:28:00,
2013-11-02 11:43:00,45.4,36.0,30.12,NW,310,8.0,17.0,71,0.00,,,0.00,weatherlink.com 1.10,2013-11-02 16:43:00,
2013-11-02 11:58:00,46.0,36.0,30.12,NW,308,10.0,16.0,67,0.00,,,0.00,weatherlink.com 1.10,2013-11-02 16:58:00,
2013-11-02 12:14:00,46.7,35.0,30.12,NW,311,10.0,16.0,65,0.00,,,0.00,weatherlink.com 1.10,2013-11-02 17:14:00,
2013-11-02 12:29:00,47.2,35.0,30.11,WNW,295,18.0,18.0,64,0.00,,,0.00,weatherlink.com 1.10,2013-11-02 17:29:00,
2013-11-02 12:44:00,47.5,36.0,30.11,NW,307,12.0,15.0,64,0.00,,,0.00,weatherlink.com 1.10,2013-11-02 17:44:00,
2013-11-02 12:59:00,48.0,36.0,30.11,WNW,297,13.0,17.0,63,0.00,,,0.00,weatherlink.com 1.10,2013-11-02 17:59:00,
2013-11-02 13:14:00,47.7,35.0,30.11,West,273,9.0,18.0,62,0.00,,,0.00,weatherlink.com 1.10,2013-11-02 18:14:00,
2013-11-02 13:29:00,48.5,35.0,30.11,WNW,290,10.0,16.0,61,0.00,,,0.00,weatherlink.com 1.10,2013-11-02 18:29:00,
2013-11-02 13:44:00,49.2,36.0,30.10,West,281,13.0,17.0,60,0.00,,,0.00,weatherlink.com 1.10,2013-11-02 18:44:00,
2013-11-02 13:59:00,49.5,36.0,30.10,WNW,303,16.0,19.0,61,0.00,,,0.00,weatherlink.com 1.10,2013-11-02 18:59:00,
2013-11-02 14:14:00,49.8,35.0,30.10,West,265,12.0,21.0,58,0.00,,,0.00,weatherlink.com 1.10,2013-11-02 19:14:00,
2013-11-02 14:29:00,48.9,35.0,30.09,WNW,301,5.0,14.0,60,0.00,,,0.00,weatherlink.com 1.10,2013-11-02 19:29:00,
2013-11-02 14:44:00,50.7,35.0,30.09,NW,311,11.0,19.0,56,0.00,,,0.00,weatherlink.com 1.10,2013-11-02 19:44:00,
2013-11-02 14:59:00,50.5,36.0,30.09,NW,309,10.0,14.0,57,0.00,,,0.00,weatherlink.com 1.10,2013-11-02 19:59:00,
2013-11-02 15:14:00,51.3,35.0,30.09,WNW,290,9.0,19.0,54,0.00,,,0.00,weatherlink.com 1.10,2013-11-02 20:14:00,
2013-11-02 15:29:00,52.0,35.0,30.09,NNE,18,11.0,19.0,52,0.00,,,0.00,weatherlink.com 1.10,2013-11-02 20:29:00,
2013-11-02 15:44:00,51.2,34.0,30.08,NW,316,11.0,18.0,52,0.00,,,0.00,weatherlink.com 1.10,2013-11-02 20:44:00,
2013-11-02 15:59:00,52.0,35.0,30.08,WNW,286,12.0,16.0,53,0.00,,,0.00,weatherlink.com 1.10,2013-11-02 20:59:00,
2013-11-02 16:14:00,51.9,35.0,30.08,NW,321,7.0,14.0,53,0.00,,,0.00,weatherlink.com 1.10,2013-11-02 21:14:00,
2013-11-02 16:29:00,52.3,35.0,30.08,WNW,283,10.0,11.0,52,0.00,,,0.00,weatherlink.com 1.10,2013-11-02 21:29:00,
2013-11-02 16:44:00,52.2,34.0,30.08,NW,316,7.0,11.0,50,0.00,,,0.00,weatherlink.com 1.10,2013-11-02 21:44:00,
2013-11-02 16:59:00,52.5,35.0,30.08,WNW,283,4.0,10.0,52,0.00,,,0.00,weatherlink.com 1.10,2013-11-02 21:59:00,
2013-11-02 17:14:00,52.1,34.0,30.08,WNW,291,5.0,10.0,51,0.00,,,0.00,weatherlink.com 1.10,2013-11-02 22:14:00,
2013-11-02 17:29:00,51.6,33.0,30.08,WNW,294,9.0,9.0,50,0.00,,,0.00,weatherlink.com 1.10,2013-11-02 22:29:00,
2013-11-02 17:44:00,50.8,34.0,30.07,West,281,5.0,8.0,53,0.00,,,0.00,weatherlink.com 1.10,2013-11-02 22:44:00,
2013-11-02 17:59:00,49.0,34.0,30.07,West,278,3.0,4.0,57,0.00,,,0.00,weatherlink.com 1.10,2013-11-02 22:59:00,
2013-11-02 18:14:00,48.1,34.0,30.07,West,264,4.0,4.0,58,0.00,,,0.00,weatherlink.com 1.10,2013-11-02 23:14:00,
2013-11-02 18:29:00,47.0,34.0,30.07,WSW,241,0.0,1.0,60,0.00,,,0.00,weatherlink.com 1.10,2013-11-02 23:29:00,
2013-11-02 18:44:00,45.3,33.0,30.07,SSW,197,0.0,1.0,63,0.00,,,0.00,weatherlink.com 1.10,2013-11-02 23:44:00,
2013-11-02 18:59:00,44.0,33.0,30.07,SSW,197,0.0,0.0,66,0.00,,,0.00,weatherlink.com 1.10,2013-11-02 23:59:00,
2013-11-02 19:14:00,43.7,33.0,30.06,SSW,197,0.0,1.0,67,0.00,,,0.00,weatherlink.com 1.10,2013-11-03 00:14:00,
2013-11-02 19:29:00,43.1,33.0,30.07,South,190,1.0,2.0,68,0.00,,,0.00,weatherlink.com 1.10,2013-11-03 00:29:00,
2013-11-02 19:44:00,42.5,33.0,30.08,South,191,0.0,1.0,69,0.00,,,0.00,weatherlink.com 1.10,2013-11-03 00:44:00,
2013-11-02 19:59:00,41.8,33.0,30.08,South,191,0.0,1.0,71,0.00,,,0.00,weatherlink.com 1.10,2013-11-03 00:59:00,
2013-11-02 20:14:00,41.6,33.0,30.08,SSW,193,1.0,2.0,72,0.00,,,0.00,weatherlink.com 1.10,2013-11-03 01:14:00,
2013-11-02 20:29:00,41.1,33.0,30.08,SSW,198,1.0,2.0,72,0.00,,,0.00,weatherlink.com 1.10,2013-11-03 01:29:00,
2013-11-02 20:44:00,41.0,33.0,30.08,South,181,2.0,2.0,72,0.00,,,0.00,weatherlink.com 1.10,2013-11-03 01:44:00,
2013-11-02 20:59:00,41.3,33.0,30.07,SSW,211,2.0,3.0,71,0.00,,,0.00,weatherlink.com 1.10,2013-11-03 01:59:00,
2013-11-02 21:14:00,40.6,33.0,30.07,SSE,149,1.0,3.0,73,0.00,,,0.00,weatherlink.com 1.10,2013-11-03 02:14:00,
2013-11-02 21:29:00,40.7,33.0,30.07,SSE,149,2.0,4.0,73,0.00,,,0.00,weatherlink.com 1.10,2013-11-03 02:29:00,
2013-11-02 21:44:00,39.5,32.0,30.06,SE,142,0.0,1.0,75,0.00,,,0.00,weatherlink.com 1.10,2013-11-03 02:44:00,
2013-11-02 21:59:00,38.0,31.0,30.07,SSE,161,0.0,2.0,77,0.00,,,0.00,weatherlink.com 1.10,2013-11-03 02:59:00,
2013-11-02 22:14:00,38.1,32.0,30.07,South,178,2.0,3.0,78,0.00,,,0.00,weatherlink.com 1.10,2013-11-03 03:14:00,
2013-11-02 22:29:00,38.8,32.0,30.07,SSE,167,3.0,5.0,77,0.00,,,0.00,weatherlink.com 1.10,2013-11-03 03:29:00,
2013-11-02 22:44:00,38.9,32.0,30.07,SSE,156,2.0,4.0,76,0.00,,,0.00,weatherlink.com 1.10,2013-11-03 03:44:00,
2013-11-02 22:59:00,38.6,32.0,30.07,SSE,164,2.0,5.0,77,0.00,,,0.00,weatherlink.com 1.10,2013-11-03 03:59:00,
2013-11-02 23:14:00,38.7,32.0,30.07,South,177,3.0,4.0,76,0.00,,,0.00,weatherlink.com 1.10,2013-11-03 04:14:00,
2013-11-02 23:29:00,38.4,31.0,30.07,South,170,2.0,4.0,76,0.00,,,0.00,weatherlink.com 1.10,2013-11-03 04:29:00,
2013-11-02 23:44:00,38.1,32.0,30.07,SE,146,3.0,3.0,77,0.00,,,0.00,weatherlink.com 1.10,2013-11-03 04:44:00,
2013-11-02 23:59:00,37.9,31.0,30.07,South,172,3.0,4.0,77,0.00,,,0.00,weatherlink.com 1.10,2013-11-03 04:59:00,